Beckley, WV (25801)

10:25 AM EDT on August 29, 2015 (GMT -0400)
Southeast Beckley | | Change Station
CLOSE
Current Station
Personal Weather Station
Location: Beckley, WV
Elevation: 2365 ft
Nearby Weather Stations

Elev 2365 ft 37.76 °N, 81.16 °W | Updated 2 seconds ago

Partly Cloudy
Partly Cloudy
79.0 °F
Feels Like 80 °F
N
3.8
Wind Variable Wind from West
Gusts 3.8 mph

Today
High -- | Low -- °F
--% Chance of Precip.
Yesterday
High -- | Low -- °F
Precip. -- in
6:52 AM 7:58 PM
Full, 100% visible
Pressure 30.21 in
Visibility 10.0 miles
Clouds Scattered Clouds 7500 ft
Heat Index 80 °F
Dew Point 62 °F
Humidity 56%
Rainfall 0.00 in
Snow Depth Not available.
UV 3 out of 12
Pollen 9.50 out of 12
Air Quality Not available.
Flu Activity Not available.
METAR KBKW 291351Z AUTO 21007KT 10SM SCT075 22/14 A3029 RMK AO2 SLP229 T02220144
Pressure 30.21 in
Visibility 10.0 miles
Clouds Scattered Clouds 7500 ft
Heat Index 80 °F
Dew Point 62 °F
Humidity 56%
Rainfall 0.00 in
Snow Depth Not available.
UV 3 out of 12
Pollen 9.50 out of 12
Air Quality Not available.
Flu Activity Not available.
METAR KBKW 291351Z AUTO 21007KT 10SM SCT075 22/14 A3029 RMK AO2 SLP229 T02220144

10-Day Weather Forecast

×

Almanac

Astronomy

Aug. 29, 2015 Rise Set
Actual Time
Civil Twilight
Nautical Twilight
Astronomical Twilight
Moon
Length of Visible Light
Length of Day
Tomorrow will be .
, % of the Moon is Illuminated

Today's Extremes

State Highs State Lows

Community

WunderPhotos

Upload Photos

1,850,706 photos uploaded!

WunderBlogs® & News

Nearby

Air Quality

  Air Quality AQ Index Pollutant
Not available.

Snow Depth

Station Depth Elevation

Earthquake Activity

City Distance Mag. Time & Date
Minimum magnitude displayed is 2.5.

Coastal Water Temperatures

Place Temperature

Stations

Nearby Weather Stations

Station Location Temp. Windchill Dew Point Humidity Wind Precip. Elev Updated Type